createdAt,value
2023-03-05T00:04:41.856Z,1.11
2023-03-05T00:12:00.165Z,1.02
2023-03-05T00:19:18.269Z,1.00
2023-03-05T00:26:39.308Z,0.86
2023-03-05T00:33:59.432Z,0.89
2023-03-05T00:41:17.725Z,0.88
2023-03-05T00:48:37.844Z,0.86
2023-03-05T00:55:56.118Z,0.90
2023-03-05T01:03:14.262Z,0.81
2023-03-05T01:10:34.941Z,0.96
2023-03-05T01:17:53.389Z,0.83
2023-03-05T01:25:11.934Z,0.74
2023-03-05T01:32:31.828Z,0.80
2023-03-05T01:39:50.436Z,0.76
2023-03-05T01:47:08.608Z,0.71
2023-03-05T01:54:31.688Z,0.63
2023-03-05T02:01:53.357Z,0.64
2023-03-05T02:09:11.723Z,0.58
2023-03-05T02:16:37.142Z,0.62
2023-03-05T02:23:57.695Z,0.55
2023-03-05T02:31:19.325Z,0.33
2023-03-05T02:38:37.632Z,0.45
2023-03-05T02:45:57.460Z,0.33
2023-03-05T02:53:15.713Z,0.13
2023-03-05T03:00:34.754Z,0.04
2023-03-05T03:07:54.620Z,-0.07
2023-03-05T03:15:15.181Z,-0.02
2023-03-05T03:22:33.532Z,-0.31
2023-03-05T03:29:53.427Z,-0.08
2023-03-05T03:37:11.924Z,-0.21
2023-03-05T03:44:30.505Z,-0.20
2023-03-05T03:51:51.566Z,-0.24
2023-03-05T03:59:10.152Z,-0.14
2023-03-05T04:06:29.207Z,-0.25
2023-03-05T04:13:49.746Z,-0.23
2023-03-05T04:21:08.175Z,-0.24
2023-03-05T04:28:26.415Z,-0.16
2023-03-05T04:35:46.036Z,-0.21
2023-03-05T04:43:05.070Z,-0.18
2023-03-05T04:50:23.351Z,-0.25
2023-03-05T04:57:43.217Z,-0.19
2023-03-05T05:05:01.437Z,-0.16
2023-03-05T05:12:19.766Z,-0.03
2023-03-05T05:19:39.624Z,-0.15
2023-03-05T05:26:57.970Z,-0.11
2023-03-05T05:34:16.208Z,0.01
2023-03-05T05:41:35.777Z,-0.06
2023-03-05T05:48:53.922Z,-0.01
2023-03-05T05:56:13.432Z,0.12
2023-03-05T06:03:33.422Z,0.02
2023-03-05T06:10:56.799Z,0.08
2023-03-05T06:18:14.895Z,0.14
2023-03-05T06:25:34.625Z,0.09
2023-03-05T06:32:52.895Z,-0.01
2023-03-05T06:40:12.250Z,0.06
2023-03-05T06:47:32.658Z,-0.06
2023-03-05T06:54:50.827Z,-0.02
2023-03-05T07:11:11.185Z,0.09
2023-03-05T07:18:29.397Z,0.13
2023-03-05T07:25:47.574Z,0.29
2023-03-05T07:33:07.246Z,0.55
2023-03-05T07:40:25.753Z,0.67
2023-03-05T07:47:44.062Z,0.77
2023-03-05T07:55:04.217Z,1.02
2023-03-05T08:02:23.510Z,1.02
2023-03-05T08:09:43.027Z,1.05
2023-03-05T08:17:02.584Z,1.07
2023-03-05T08:24:20.875Z,1.07
2023-03-05T08:31:39.838Z,1.03
2023-03-05T08:39:00.968Z,0.86
2023-03-05T08:46:20.118Z,1.20
2023-03-05T08:53:38.358Z,1.11
2023-03-05T09:00:58.066Z,1.22
2023-03-05T09:08:16.556Z,1.09
2023-03-05T09:15:34.820Z,1.04
2023-03-05T09:22:54.452Z,1.20
2023-03-05T09:30:14.000Z,0.99
2023-03-05T09:37:32.178Z,0.82
2023-03-05T09:44:58.834Z,0.46
2023-03-05T09:52:21.303Z,0.87
2023-03-05T09:59:45.936Z,1.24
2023-03-05T10:07:09.849Z,1.33
2023-03-05T10:14:31.105Z,1.71
2023-03-05T10:21:52.220Z,2.38
2023-03-05T10:29:20.396Z,2.37
2023-03-05T10:36:57.153Z,2.55
2023-03-05T10:44:23.914Z,3.05
2023-03-05T10:51:45.922Z,3.43
2023-03-05T10:59:04.186Z,2.42
2023-03-05T11:06:35.981Z,2.36
2023-03-05T11:13:59.632Z,2.24
2023-03-05T11:21:24.060Z,1.95
2023-03-05T11:28:59.246Z,2.08
2023-03-05T11:36:26.611Z,2.37
2023-03-05T11:43:46.278Z,3.19
2023-03-05T11:51:09.501Z,4.05
2023-03-05T11:58:32.378Z,3.21
2023-03-05T12:05:54.119Z,2.83
2023-03-05T12:13:16.708Z,3.14
2023-03-05T12:20:40.359Z,2.75
2023-03-05T12:28:00.187Z,2.20
2023-03-05T12:35:26.639Z,2.26
2023-03-05T12:42:53.121Z,1.86
2023-03-05T12:50:49.908Z,1.88
2023-03-05T12:58:14.203Z,2.27
2023-03-05T13:05:34.261Z,2.32
2023-03-05T13:12:55.952Z,2.08
2023-03-05T13:20:38.517Z,2.06
2023-03-05T13:28:04.862Z,1.94
2023-03-05T13:35:23.230Z,1.88
2023-03-05T13:42:41.486Z,1.88
2023-03-05T13:50:05.252Z,1.89
2023-03-05T13:57:40.830Z,1.44
2023-03-05T14:05:00.975Z,1.19
2023-03-05T14:12:28.426Z,1.20
2023-03-05T14:19:47.570Z,1.31
2023-03-05T14:27:13.757Z,1.56
2023-03-05T14:34:33.789Z,1.85
2023-03-05T14:41:52.194Z,2.35
2023-03-05T14:49:12.249Z,2.26
2023-03-05T14:56:30.573Z,2.00
2023-03-05T15:03:49.026Z,1.90
2023-03-05T15:11:11.301Z,1.90
2023-03-05T15:18:29.703Z,1.91
2023-03-05T15:25:47.949Z,1.89
2023-03-05T15:33:09.373Z,1.53
2023-03-05T15:40:28.571Z,1.17
2023-03-05T15:47:46.804Z,1.12
2023-03-05T15:55:07.238Z,0.87
2023-03-05T16:02:25.491Z,0.72
2023-03-05T16:09:46.132Z,0.80
2023-03-05T16:17:06.698Z,0.72
2023-03-05T16:24:25.266Z,0.66
2023-03-05T16:31:45.425Z,0.67
2023-03-05T16:39:06.162Z,0.62
2023-03-05T16:46:25.296Z,0.34
2023-03-05T16:53:45.079Z,0.16
2023-03-05T17:01:08.218Z,0.17
2023-03-05T17:08:26.652Z,-0.03
2023-03-05T17:15:45.140Z,-0.07
2023-03-05T17:23:04.763Z,-0.20
2023-03-05T17:30:23.051Z,-0.29
2023-03-05T17:37:41.405Z,-0.37
2023-03-05T17:45:11.510Z,-0.55
2023-03-05T17:52:29.849Z,-0.50
2023-03-05T17:59:48.508Z,-0.48
2023-03-05T18:07:08.313Z,-0.52
2023-03-05T18:14:26.694Z,-0.68
2023-03-05T18:21:45.050Z,-0.56
2023-03-05T18:29:04.853Z,-0.62
2023-03-05T18:36:23.286Z,-0.69
2023-03-05T18:43:41.994Z,-0.71
2023-03-05T18:51:02.216Z,-0.82
2023-03-05T18:58:21.090Z,-0.83
2023-03-05T19:05:39.852Z,-0.93
2023-03-05T19:13:08.129Z,-0.91
2023-03-05T19:20:26.542Z,-0.91
2023-03-05T19:27:44.979Z,-0.88
2023-03-05T19:35:06.910Z,-0.91
2023-03-05T19:42:25.169Z,-0.88
2023-03-05T19:49:43.575Z,-0.80
2023-03-05T19:57:03.894Z,-0.81
2023-03-05T20:04:24.328Z,-0.81
2023-03-05T20:11:43.032Z,-0.80
2023-03-05T20:19:04.205Z,-0.84
2023-03-05T20:26:23.581Z,-0.84
2023-03-05T20:33:42.198Z,-0.78
2023-03-05T20:41:03.520Z,-0.89
2023-03-05T20:48:22.092Z,-0.82
2023-03-05T20:55:40.690Z,-0.90
2023-03-05T21:03:00.545Z,-0.89
2023-03-05T21:10:18.845Z,-0.87
2023-03-05T21:17:37.155Z,-0.96
2023-03-05T21:25:03.506Z,-0.94
2023-03-05T21:32:23.297Z,-0.99
2023-03-05T21:39:41.607Z,-0.95
2023-03-05T21:47:02.334Z,-0.91
2023-03-05T21:54:20.776Z,-0.91
2023-03-05T22:01:38.972Z,-0.90
2023-03-05T22:08:58.524Z,-0.85
2023-03-05T22:16:23.353Z,-0.08
2023-03-05T22:23:41.649Z,-0.53
2023-03-05T22:31:01.376Z,-0.72
2023-03-05T22:38:20.067Z,-0.83
2023-03-05T22:45:41.736Z,-0.92
2023-03-05T22:53:02.069Z,-0.84
2023-03-05T23:00:23.927Z,-0.84
2023-03-05T23:07:43.160Z,-0.84
2023-03-05T23:15:04.029Z,-0.75
2023-03-05T23:22:23.077Z,-0.82
2023-03-05T23:29:58.887Z,-0.95
2023-03-05T23:37:18.555Z,-1.15
2023-03-05T23:44:37.189Z,-1.34
2023-03-05T23:51:55.644Z,-1.46
2023-03-05T23:59:15.473Z,-1.56
